sensor_id;sensor_type;location;lat;lon;timestamp;temperature;humidity
44517;DHT22;30223;17.182;-96.766;2022-12-17T00:07:27;26.00;50.40
44517;DHT22;30223;17.182;-96.766;2022-12-17T00:10:11;26.00;51.10
44517;DHT22;30223;17.182;-96.766;2022-12-17T00:12:56;26.00;51.40
44517;DHT22;30223;17.182;-96.766;2022-12-17T00:15:41;25.90;51.30
44517;DHT22;30223;17.182;-96.766;2022-12-17T00:18:26;25.90;51.50
44517;DHT22;30223;17.182;-96.766;2022-12-17T00:21:12;25.80;51.60
44517;DHT22;30223;17.182;-96.766;2022-12-17T00:23:56;25.80;51.70
44517;DHT22;30223;17.182;-96.766;2022-12-17T00:26:41;25.80;51.80
44517;DHT22;30223;17.182;-96.766;2022-12-17T00:29:26;25.70;51.80
44517;DHT22;30223;17.182;-96.766;2022-12-17T00:32:10;25.70;52.00
44517;DHT22;30223;17.182;-96.766;2022-12-17T00:34:55;25.70;51.80
44517;DHT22;30223;17.182;-96.766;2022-12-17T00:37:39;25.70;52.10
44517;DHT22;30223;17.182;-96.766;2022-12-17T00:40:24;25.60;52.10
44517;DHT22;30223;17.182;-96.766;2022-12-17T00:43:11;25.60;52.20
44517;DHT22;30223;17.182;-96.766;2022-12-17T00:45:56;25.60;52.30
44517;DHT22;30223;17.182;-96.766;2022-12-17T00:48:41;25.50;52.30
44517;DHT22;30223;17.182;-96.766;2022-12-17T00:51:26;25.50;52.40
44517;DHT22;30223;17.182;-96.766;2022-12-17T00:54:11;25.50;52.40
44517;DHT22;30223;17.182;-96.766;2022-12-17T00:56:56;25.50;52.60
44517;DHT22;30223;17.182;-96.766;2022-12-17T00:59:41;25.50;52.80
44517;DHT22;30223;17.182;-96.766;2022-12-17T01:02:26;25.50;52.90
44517;DHT22;30223;17.182;-96.766;2022-12-17T01:05:12;25.50;53.00
44517;DHT22;30223;17.182;-96.766;2022-12-17T01:08:04;25.50;53.00
44517;DHT22;30223;17.182;-96.766;2022-12-17T01:10:50;25.50;53.00
44517;DHT22;30223;17.182;-96.766;2022-12-17T01:13:34;25.40;52.90
44517;DHT22;30223;17.182;-96.766;2022-12-17T01:16:19;25.40;53.00
44517;DHT22;30223;17.182;-96.766;2022-12-17T01:19:04;25.40;53.10
44517;DHT22;30223;17.182;-96.766;2022-12-17T01:21:49;25.40;53.10
44517;DHT22;30223;17.182;-96.766;2022-12-17T01:24:33;25.30;53.00
44517;DHT22;30223;17.182;-96.766;2022-12-17T01:27:18;25.30;52.90
44517;DHT22;30223;17.182;-96.766;2022-12-17T01:30:03;25.30;53.00
44517;DHT22;30223;17.182;-96.766;2022-12-17T01:32:48;25.30;53.10
44517;DHT22;30223;17.182;-96.766;2022-12-17T01:35:32;25.30;53.10
44517;DHT22;30223;17.182;-96.766;2022-12-17T01:38:18;25.20;53.00
44517;DHT22;30223;17.182;-96.766;2022-12-17T01:41:03;25.20;53.00
44517;DHT22;30223;17.182;-96.766;2022-12-17T01:43:48;25.20;53.00
44517;DHT22;30223;17.182;-96.766;2022-12-17T01:46:36;25.20;53.00
44517;DHT22;30223;17.182;-96.766;2022-12-17T01:49:24;25.20;53.00
44517;DHT22;30223;17.182;-96.766;2022-12-17T01:52:12;25.20;53.00
44517;DHT22;30223;17.182;-96.766;2022-12-17T01:54:57;25.20;53.00
44517;DHT22;30223;17.182;-96.766;2022-12-17T01:57:42;25.10;52.90
44517;DHT22;30223;17.182;-96.766;2022-12-17T02:00:27;25.10;52.90
44517;DHT22;30223;17.182;-96.766;2022-12-17T02:03:14;25.10;52.90
44517;DHT22;30223;17.182;-96.766;2022-12-17T02:06:17;25.10;52.90
44517;DHT22;30223;17.182;-96.766;2022-12-17T02:12:09;25.00;52.80
44517;DHT22;30223;17.182;-96.766;2022-12-17T02:17:58;25.00;52.70
44517;DHT22;30223;17.182;-96.766;2022-12-17T02:20:50;25.00;52.70
44517;DHT22;30223;17.182;-96.766;2022-12-17T02:26:51;25.00;52.70
44517;DHT22;30223;17.182;-96.766;2022-12-17T02:29:58;25.00;52.60
44517;DHT22;30223;17.182;-96.766;2022-12-17T02:32:46;24.90;52.20
44517;DHT22;30223;17.182;-96.766;2022-12-17T02:35:54;24.90;52.40
44517;DHT22;30223;17.182;-96.766;2022-12-17T02:38:41;24.90;52.50
44517;DHT22;30223;17.182;-96.766;2022-12-17T02:41:26;24.80;52.30
44517;DHT22;30223;17.182;-96.766;2022-12-17T02:44:15;24.80;52.00
44517;DHT22;30223;17.182;-96.766;2022-12-17T02:47:03;24.80;51.90
44517;DHT22;30223;17.182;-96.766;2022-12-17T02:49:48;24.80;51.60
44517;DHT22;30223;17.182;-96.766;2022-12-17T02:52:36;24.80;51.40
44517;DHT22;30223;17.182;-96.766;2022-12-17T02:55:22;24.80;51.60
44517;DHT22;30223;17.182;-96.766;2022-12-17T02:58:07;24.80;51.40
44517;DHT22;30223;17.182;-96.766;2022-12-17T03:00:52;24.70;51.10
44517;DHT22;30223;17.182;-96.766;2022-12-17T03:03:36;24.70;50.90
44517;DHT22;30223;17.182;-96.766;2022-12-17T03:06:21;24.70;50.80
44517;DHT22;30223;17.182;-96.766;2022-12-17T03:09:06;24.70;50.90
44517;DHT22;30223;17.182;-96.766;2022-12-17T03:11:50;24.60;51.20
44517;DHT22;30223;17.182;-96.766;2022-12-17T03:14:35;24.60;51.30
44517;DHT22;30223;17.182;-96.766;2022-12-17T03:17:19;24.60;51.20
44517;DHT22;30223;17.182;-96.766;2022-12-17T03:20:15;24.60;51.10
44517;DHT22;30223;17.182;-96.766;2022-12-17T03:23:08;24.60;51.20
44517;DHT22;30223;17.182;-96.766;2022-12-17T03:25:56;24.60;51.00
44517;DHT22;30223;17.182;-96.766;2022-12-17T03:28:41;24.50;51.00
44517;DHT22;30223;17.182;-96.766;2022-12-17T03:31:26;24.50;51.30
44517;DHT22;30223;17.182;-96.766;2022-12-17T03:34:10;24.50;51.30
44517;DHT22;30223;17.182;-96.766;2022-12-17T03:36:55;24.50;51.30
44517;DHT22;30223;17.182;-96.766;2022-12-17T03:39:40;24.50;51.30
44517;DHT22;30223;17.182;-96.766;2022-12-17T03:42:24;24.50;51.20
44517;DHT22;30223;17.182;-96.766;2022-12-17T03:45:09;24.50;51.20
44517;DHT22;30223;17.182;-96.766;2022-12-17T03:48:12;24.40;51.10
44517;DHT22;30223;17.182;-96.766;2022-12-17T03:51:17;24.50;51.20
44517;DHT22;30223;17.182;-96.766;2022-12-17T03:54:02;24.40;51.20
44517;DHT22;30223;17.182;-96.766;2022-12-17T03:56:46;24.40;51.30
44517;DHT22;30223;17.182;-96.766;2022-12-17T03:59:31;24.40;51.30
44517;DHT22;30223;17.182;-96.766;2022-12-17T04:02:16;24.40;51.40
44517;DHT22;30223;17.182;-96.766;2022-12-17T04:05:00;24.40;51.40
44517;DHT22;30223;17.182;-96.766;2022-12-17T04:07:45;24.40;51.50
44517;DHT22;30223;17.182;-96.766;2022-12-17T04:10:30;24.30;51.50
44517;DHT22;30223;17.182;-96.766;2022-12-17T04:13:14;24.30;51.50
44517;DHT22;30223;17.182;-96.766;2022-12-17T04:15:59;24.30;51.70
44517;DHT22;30223;17.182;-96.766;2022-12-17T04:18:44;24.30;51.70
44517;DHT22;30223;17.182;-96.766;2022-12-17T04:21:28;24.30;51.80
44517;DHT22;30223;17.182;-96.766;2022-12-17T04:24:13;24.30;51.80
44517;DHT22;30223;17.182;-96.766;2022-12-17T04:26:57;24.30;51.90
44517;DHT22;30223;17.182;-96.766;2022-12-17T04:29:42;24.30;52.00
44517;DHT22;30223;17.182;-96.766;2022-12-17T04:32:27;24.20;52.00
44517;DHT22;30223;17.182;-96.766;2022-12-17T04:35:11;24.20;52.10
44517;DHT22;30223;17.182;-96.766;2022-12-17T04:38:10;24.20;52.20
44517;DHT22;30223;17.182;-96.766;2022-12-17T04:40:55;24.20;52.20
44517;DHT22;30223;17.182;-96.766;2022-12-17T04:43:39;24.20;52.30
44517;DHT22;30223;17.182;-96.766;2022-12-17T04:46:24;24.20;52.30
44517;DHT22;30223;17.182;-96.766;2022-12-17T04:49:09;24.20;52.40
44517;DHT22;30223;17.182;-96.766;2022-12-17T04:51:53;24.20;52.40
44517;DHT22;30223;17.182;-96.766;2022-12-17T04:54:38;24.10;52.40
44517;DHT22;30223;17.182;-96.766;2022-12-17T04:57:22;24.10;53.10
44517;DHT22;30223;17.182;-96.766;2022-12-17T05:00:07;24.10;53.50
44517;DHT22;30223;17.182;-96.766;2022-12-17T05:02:53;24.10;54.00
44517;DHT22;30223;17.182;-96.766;2022-12-17T05:05:37;24.10;55.30
44517;DHT22;30223;17.182;-96.766;2022-12-17T05:08:36;24.10;56.50
44517;DHT22;30223;17.182;-96.766;2022-12-17T05:11:21;24.20;57.20
44517;DHT22;30223;17.182;-96.766;2022-12-17T05:14:06;24.20;57.60
44517;DHT22;30223;17.182;-96.766;2022-12-17T05:16:51;24.20;57.40
44517;DHT22;30223;17.182;-96.766;2022-12-17T05:19:36;24.30;57.60
44517;DHT22;30223;17.182;-96.766;2022-12-17T05:22:20;24.30;57.10
44517;DHT22;30223;17.182;-96.766;2022-12-17T05:25:05;24.40;56.90
44517;DHT22;30223;17.182;-96.766;2022-12-17T05:27:50;24.40;57.10
44517;DHT22;30223;17.182;-96.766;2022-12-17T05:30:35;24.50;57.90
44517;DHT22;30223;17.182;-96.766;2022-12-17T05:33:20;24.50;56.70
44517;DHT22;30223;17.182;-96.766;2022-12-17T05:36:05;24.50;56.50
44517;DHT22;30223;17.182;-96.766;2022-12-17T05:38:50;24.50;56.20
44517;DHT22;30223;17.182;-96.766;2022-12-17T05:41:34;24.50;56.00
44517;DHT22;30223;17.182;-96.766;2022-12-17T05:44:20;24.50;55.90
44517;DHT22;30223;17.182;-96.766;2022-12-17T05:47:05;24.50;55.30
44517;DHT22;30223;17.182;-96.766;2022-12-17T05:49:50;24.50;55.20
44517;DHT22;30223;17.182;-96.766;2022-12-17T05:52:35;24.50;55.00
44517;DHT22;30223;17.182;-96.766;2022-12-17T05:55:19;24.50;54.70
44517;DHT22;30223;17.182;-96.766;2022-12-17T05:58:10;24.50;54.60
44517;DHT22;30223;17.182;-96.766;2022-12-17T06:01:00;24.50;54.80
44517;DHT22;30223;17.182;-96.766;2022-12-17T06:03:45;24.40;54.50
44517;DHT22;30223;17.182;-96.766;2022-12-17T06:06:30;24.30;54.20
44517;DHT22;30223;17.182;-96.766;2022-12-17T06:09:15;24.30;54.10
44517;DHT22;30223;17.182;-96.766;2022-12-17T06:12:00;24.30;54.00
44517;DHT22;30223;17.182;-96.766;2022-12-17T06:14:45;24.20;53.80
44517;DHT22;30223;17.182;-96.766;2022-12-17T06:17:29;24.10;53.70
44517;DHT22;30223;17.182;-96.766;2022-12-17T06:20:14;24.00;53.70
44517;DHT22;30223;17.182;-96.766;2022-12-17T06:23:04;24.00;53.70
44517;DHT22;30223;17.182;-96.766;2022-12-17T06:25:54;23.90;53.70
44517;DHT22;30223;17.182;-96.766;2022-12-17T06:28:38;23.90;53.70
44517;DHT22;30223;17.182;-96.766;2022-12-17T06:31:23;23.80;53.60
44517;DHT22;30223;17.182;-96.766;2022-12-17T06:34:08;23.80;53.70
44517;DHT22;30223;17.182;-96.766;2022-12-17T06:36:53;23.70;53.70
44517;DHT22;30223;17.182;-96.766;2022-12-17T06:39:37;23.70;53.80
44517;DHT22;30223;17.182;-96.766;2022-12-17T06:42:22;23.60;53.70
44517;DHT22;30223;17.182;-96.766;2022-12-17T06:45:07;23.60;53.70
44517;DHT22;30223;17.182;-96.766;2022-12-17T06:47:59;23.50;53.70
44517;DHT22;30223;17.182;-96.766;2022-12-17T06:50:44;23.50;53.70
44517;DHT22;30223;17.182;-96.766;2022-12-17T06:53:29;23.40;53.70
44517;DHT22;30223;17.182;-96.766;2022-12-17T06:56:13;23.40;53.80
44517;DHT22;30223;17.182;-96.766;2022-12-17T06:58:58;23.40;53.80
44517;DHT22;30223;17.182;-96.766;2022-12-17T07:01:43;23.40;53.80
44517;DHT22;30223;17.182;-96.766;2022-12-17T07:04:28;23.30;53.70
44517;DHT22;30223;17.182;-96.766;2022-12-17T07:07:13;23.30;53.80
44517;DHT22;30223;17.182;-96.766;2022-12-17T07:09:58;23.30;53.80
44517;DHT22;30223;17.182;-96.766;2022-12-17T07:12:42;23.20;53.70
44517;DHT22;30223;17.182;-96.766;2022-12-17T07:15:27;23.20;53.70
44517;DHT22;30223;17.182;-96.766;2022-12-17T07:18:12;23.20;53.80
44517;DHT22;30223;17.182;-96.766;2022-12-17T07:20:57;23.20;53.80
44517;DHT22;30223;17.182;-96.766;2022-12-17T07:23:42;23.10;53.70
44517;DHT22;30223;17.182;-96.766;2022-12-17T07:26:26;23.10;53.80
44517;DHT22;30223;17.182;-96.766;2022-12-17T07:29:11;23.10;53.80
44517;DHT22;30223;17.182;-96.766;2022-12-17T07:31:55;23.00;53.70
44517;DHT22;30223;17.182;-96.766;2022-12-17T07:34:40;23.00;53.70
44517;DHT22;30223;17.182;-96.766;2022-12-17T07:37:24;23.00;53.80
44517;DHT22;30223;17.182;-96.766;2022-12-17T07:40:09;23.00;53.70
44517;DHT22;30223;17.182;-96.766;2022-12-17T07:42:54;23.00;53.80
44517;DHT22;30223;17.182;-96.766;2022-12-17T07:45:39;23.00;53.80
44517;DHT22;30223;17.182;-96.766;2022-12-17T07:48:23;22.90;53.80
44517;DHT22;30223;17.182;-96.766;2022-12-17T07:51:08;22.90;53.80
44517;DHT22;30223;17.182;-96.766;2022-12-17T07:53:53;22.90;53.70
44517;DHT22;30223;17.182;-96.766;2022-12-17T07:56:37;22.90;53.80
44517;DHT22;30223;17.182;-96.766;2022-12-17T07:59:22;22.80;53.70
44517;DHT22;30223;17.182;-96.766;2022-12-17T08:02:09;22.80;53.70
44517;DHT22;30223;17.182;-96.766;2022-12-17T08:04:54;22.80;53.80
44517;DHT22;30223;17.182;-96.766;2022-12-17T08:07:38;22.80;53.70
44517;DHT22;30223;17.182;-96.766;2022-12-17T08:10:23;22.80;53.80
44517;DHT22;30223;17.182;-96.766;2022-12-17T08:13:08;22.70;53.70
44517;DHT22;30223;17.182;-96.766;2022-12-17T08:15:53;22.70;53.70
44517;DHT22;30223;17.182;-96.766;2022-12-17T08:18:38;22.70;53.80
44517;DHT22;30223;17.182;-96.766;2022-12-17T08:21:23;22.60;53.70
44517;DHT22;30223;17.182;-96.766;2022-12-17T08:24:08;22.60;53.70
44517;DHT22;30223;17.182;-96.766;2022-12-17T08:26:53;22.60;53.70
44517;DHT22;30223;17.182;-96.766;2022-12-17T08:29:37;22.60;53.70
44517;DHT22;30223;17.182;-96.766;2022-12-17T08:32:22;22.60;53.80
44517;DHT22;30223;17.182;-96.766;2022-12-17T08:35:07;22.60;53.70
44517;DHT22;30223;17.182;-96.766;2022-12-17T08:37:52;22.60;53.70
44517;DHT22;30223;17.182;-96.766;2022-12-17T08:40:37;22.50;53.70
44517;DHT22;30223;17.182;-96.766;2022-12-17T08:43:21;22.50;53.70
44517;DHT22;30223;17.182;-96.766;2022-12-17T08:46:06;22.50;53.70
44517;DHT22;30223;17.182;-96.766;2022-12-17T08:48:51;22.50;53.70
44517;DHT22;30223;17.182;-96.766;2022-12-17T08:51:35;22.50;53.70
44517;DHT22;30223;17.182;-96.766;2022-12-17T08:54:20;22.50;53.70
44517;DHT22;30223;17.182;-96.766;2022-12-17T08:57:04;22.40;53.60
44517;DHT22;30223;17.182;-96.766;2022-12-17T08:59:49;22.40;53.70
44517;DHT22;30223;17.182;-96.766;2022-12-17T09:02:33;22.40;53.70
44517;DHT22;30223;17.182;-96.766;2022-12-17T09:05:18;22.40;53.60
44517;DHT22;30223;17.182;-96.766;2022-12-17T09:08:05;22.40;53.70
44517;DHT22;30223;17.182;-96.766;2022-12-17T09:10:51;22.30;53.60
44517;DHT22;30223;17.182;-96.766;2022-12-17T09:13:36;22.40;53.70
44517;DHT22;30223;17.182;-96.766;2022-12-17T09:16:21;22.30;53.60
44517;DHT22;30223;17.182;-96.766;2022-12-17T09:19:08;22.30;53.60
44517;DHT22;30223;17.182;-96.766;2022-12-17T09:21:53;22.30;53.60
44517;DHT22;30223;17.182;-96.766;2022-12-17T09:24:38;22.30;53.60
44517;DHT22;30223;17.182;-96.766;2022-12-17T09:27:22;22.30;53.60
44517;DHT22;30223;17.182;-96.766;2022-12-17T09:30:07;22.20;53.50
44517;DHT22;30223;17.182;-96.766;2022-12-17T09:32:52;22.20;53.60
44517;DHT22;30223;17.182;-96.766;2022-12-17T09:35:38;22.30;53.60
44517;DHT22;30223;17.182;-96.766;2022-12-17T09:38:24;22.20;53.50
44517;DHT22;30223;17.182;-96.766;2022-12-17T09:41:27;22.20;53.60
44517;DHT22;30223;17.182;-96.766;2022-12-17T09:45:05;22.20;53.60
44517;DHT22;30223;17.182;-96.766;2022-12-17T09:50:14;22.10;53.50
44517;DHT22;30223;17.182;-96.766;2022-12-17T09:53:09;22.10;53.50
44517;DHT22;30223;17.182;-96.766;2022-12-17T09:56:00;22.10;53.50
44517;DHT22;30223;17.182;-96.766;2022-12-17T09:58:46;22.10;53.60
44517;DHT22;30223;17.182;-96.766;2022-12-17T10:01:34;22.00;53.50
44517;DHT22;30223;17.182;-96.766;2022-12-17T10:04:26;22.00;53.50
44517;DHT22;30223;17.182;-96.766;2022-12-17T10:07:16;22.00;53.50
44517;DHT22;30223;17.182;-96.766;2022-12-17T10:10:23;22.00;53.50
44517;DHT22;30223;17.182;-96.766;2022-12-17T10:13:14;22.00;53.50
44517;DHT22;30223;17.182;-96.766;2022-12-17T10:15:58;21.90;53.50
44517;DHT22;30223;17.182;-96.766;2022-12-17T10:18:44;21.90;53.50
44517;DHT22;30223;17.182;-96.766;2022-12-17T10:21:29;21.90;53.50
44517;DHT22;30223;17.182;-96.766;2022-12-17T10:24:15;21.90;53.50
44517;DHT22;30223;17.182;-96.766;2022-12-17T10:27:08;21.90;53.60
44517;DHT22;30223;17.182;-96.766;2022-12-17T10:29:53;21.90;53.50
44517;DHT22;30223;17.182;-96.766;2022-12-17T10:32:38;21.90;53.50
44517;DHT22;30223;17.182;-96.766;2022-12-17T10:35:25;21.80;53.50
44517;DHT22;30223;17.182;-96.766;2022-12-17T10:38:29;21.80;53.50
44517;DHT22;30223;17.182;-96.766;2022-12-17T10:41:34;21.80;53.50
44517;DHT22;30223;17.182;-96.766;2022-12-17T10:44:30;21.80;53.60
44517;DHT22;30223;17.182;-96.766;2022-12-17T10:47:18;21.70;53.50
44517;DHT22;30223;17.182;-96.766;2022-12-17T10:50:15;21.70;53.50
44517;DHT22;30223;17.182;-96.766;2022-12-17T10:53:02;21.70;53.50
44517;DHT22;30223;17.182;-96.766;2022-12-17T10:55:58;21.70;53.50
44517;DHT22;30223;17.182;-96.766;2022-12-17T10:58:52;21.60;53.50
44517;DHT22;30223;17.182;-96.766;2022-12-17T11:01:39;21.60;53.50
44517;DHT22;30223;17.182;-96.766;2022-12-17T11:04:31;21.60;53.50
44517;DHT22;30223;17.182;-96.766;2022-12-17T11:07:37;21.60;53.50
44517;DHT22;30223;17.182;-96.766;2022-12-17T11:10:31;21.60;53.50
44517;DHT22;30223;17.182;-96.766;2022-12-17T11:13:40;21.50;53.50
44517;DHT22;30223;17.182;-96.766;2022-12-17T11:16:40;21.50;53.50
44517;DHT22;30223;17.182;-96.766;2022-12-17T11:22:53;21.50;53.60
44517;DHT22;30223;17.182;-96.766;2022-12-17T11:25:44;21.50;53.50
44517;DHT22;30223;17.182;-96.766;2022-12-17T11:28:35;21.40;53.50
44517;DHT22;30223;17.182;-96.766;2022-12-17T11:38:24;21.40;53.60
44517;DHT22;30223;17.182;-96.766;2022-12-17T11:41:24;21.40;53.50
44517;DHT22;30223;17.182;-96.766;2022-12-17T11:44:24;21.30;53.50
44517;DHT22;30223;17.182;-96.766;2022-12-17T12:00:15;21.20;53.50
44517;DHT22;30223;17.182;-96.766;2022-12-17T12:06:20;21.20;53.60
44517;DHT22;30223;17.182;-96.766;2022-12-17T12:21:42;21.10;53.60
44517;DHT22;30223;17.182;-96.766;2022-12-17T12:33:52;21.00;53.60
44517;DHT22;30223;17.182;-96.766;2022-12-17T12:36:40;21.00;53.60
44517;DHT22;30223;17.182;-96.766;2022-12-17T12:39:48;21.00;53.60
44517;DHT22;30223;17.182;-96.766;2022-12-17T12:42:45;20.90;53.50
44517;DHT22;30223;17.182;-96.766;2022-12-17T12:45:39;20.90;53.60
44517;DHT22;30223;17.182;-96.766;2022-12-17T12:51:49;20.90;53.50
44517;DHT22;30223;17.182;-96.766;2022-12-17T12:54:53;20.90;53.50
44517;DHT22;30223;17.182;-96.766;2022-12-17T12:57:53;20.80;53.50
44517;DHT22;30223;17.182;-96.766;2022-12-17T13:06:38;20.80;53.60
44517;DHT22;30223;17.182;-96.766;2022-12-17T13:11:51;20.80;53.60
44517;DHT22;30223;17.182;-96.766;2022-12-17T13:14:26;20.70;53.60
44517;DHT22;30223;17.182;-96.766;2022-12-17T13:24:56;20.70;53.60
44517;DHT22;30223;17.182;-96.766;2022-12-17T13:33:22;20.60;53.60
44517;DHT22;30223;17.182;-96.766;2022-12-17T13:39:04;20.60;53.60
44517;DHT22;30223;17.182;-96.766;2022-12-17T13:41:33;20.60;53.70
44517;DHT22;30223;17.182;-96.766;2022-12-17T13:44:24;20.60;53.70
44517;DHT22;30223;17.182;-96.766;2022-12-17T14:01:07;20.60;53.30
44517;DHT22;30223;17.182;-96.766;2022-12-17T14:03:35;20.60;53.50
44517;DHT22;30223;17.182;-96.766;2022-12-17T14:06:03;20.60;53.60
44517;DHT22;30223;17.182;-96.766;2022-12-17T14:08:32;20.60;53.70
44517;DHT22;30223;17.182;-96.766;2022-12-17T14:11:00;20.60;53.70
44517;DHT22;30223;17.182;-96.766;2022-12-17T14:13:47;20.60;53.70
44517;DHT22;30223;17.182;-96.766;2022-12-17T14:16:16;20.60;53.70
44517;DHT22;30223;17.182;-96.766;2022-12-17T14:18:51;20.60;53.70
44517;DHT22;30223;17.182;-96.766;2022-12-17T14:21:18;20.50;53.70
44517;DHT22;30223;17.182;-96.766;2022-12-17T14:23:47;20.60;53.80
44517;DHT22;30223;17.182;-96.766;2022-12-17T14:26:14;20.60;53.90
44517;DHT22;30223;17.182;-96.766;2022-12-17T14:28:50;20.60;53.90
44517;DHT22;30223;17.182;-96.766;2022-12-17T14:31:21;20.60;53.90
44517;DHT22;30223;17.182;-96.766;2022-12-17T14:34:04;20.60;53.90
44517;DHT22;30223;17.182;-96.766;2022-12-17T14:36:40;20.60;54.00
44517;DHT22;30223;17.182;-96.766;2022-12-17T14:39:17;20.60;54.00
44517;DHT22;30223;17.182;-96.766;2022-12-17T14:41:45;20.60;54.00
44517;DHT22;30223;17.182;-96.766;2022-12-17T14:44:30;20.60;54.10
44517;DHT22;30223;17.182;-96.766;2022-12-17T14:47:35;20.60;54.00
44517;DHT22;30223;17.182;-96.766;2022-12-17T14:50:04;20.60;54.00
44517;DHT22;30223;17.182;-96.766;2022-12-17T14:52:41;20.60;54.10
44517;DHT22;30223;17.182;-96.766;2022-12-17T14:55:35;20.60;54.10
44517;DHT22;30223;17.182;-96.766;2022-12-17T15:00:47;20.60;54.10
44517;DHT22;30223;17.182;-96.766;2022-12-17T15:03:47;20.70;54.20
44517;DHT22;30223;17.182;-96.766;2022-12-17T15:06:16;20.60;54.20
44517;DHT22;30223;17.182;-96.766;2022-12-17T15:08:48;20.70;54.30
44517;DHT22;30223;17.182;-96.766;2022-12-17T15:11:20;20.70;54.30
44517;DHT22;30223;17.182;-96.766;2022-12-17T15:13:47;20.70;54.30
44517;DHT22;30223;17.182;-96.766;2022-12-17T15:16:14;20.70;54.40
44517;DHT22;30223;17.182;-96.766;2022-12-17T15:18:41;20.70;54.40
44517;DHT22;30223;17.182;-96.766;2022-12-17T15:21:10;20.80;54.50
44517;DHT22;30223;17.182;-96.766;2022-12-17T15:23:40;20.80;54.50
44517;DHT22;30223;17.182;-96.766;2022-12-17T15:26:08;20.70;54.50
44517;DHT22;30223;17.182;-96.766;2022-12-17T15:28:35;20.80;54.50
44517;DHT22;30223;17.182;-96.766;2022-12-17T15:31:03;20.80;54.60
44517;DHT22;30223;17.182;-96.766;2022-12-17T15:33:29;20.80;54.60
44517;DHT22;30223;17.182;-96.766;2022-12-17T15:35:57;20.80;54.70
44517;DHT22;30223;17.182;-96.766;2022-12-17T15:38:24;20.90;54.70
44517;DHT22;30223;17.182;-96.766;2022-12-17T15:40:51;20.90;54.80
44517;DHT22;30223;17.182;-96.766;2022-12-17T15:43:17;20.90;54.80
44517;DHT22;30223;17.182;-96.766;2022-12-17T15:45:48;20.90;54.90
44517;DHT22;30223;17.182;-96.766;2022-12-17T15:48:18;20.90;55.00
44517;DHT22;30223;17.182;-96.766;2022-12-17T15:50:45;21.00;55.10
44517;DHT22;30223;17.182;-96.766;2022-12-17T15:53:12;21.00;55.20
44517;DHT22;30223;17.182;-96.766;2022-12-17T15:55:39;21.00;55.50
44517;DHT22;30223;17.182;-96.766;2022-12-17T15:58:07;21.00;55.70
44517;DHT22;30223;17.182;-96.766;2022-12-17T16:00:36;21.00;56.00
44517;DHT22;30223;17.182;-96.766;2022-12-17T16:03:03;21.10;56.10
44517;DHT22;30223;17.182;-96.766;2022-12-17T16:05:30;21.10;56.30
44517;DHT22;30223;17.182;-96.766;2022-12-17T16:07:56;21.10;56.40
44517;DHT22;30223;17.182;-96.766;2022-12-17T16:10:27;21.10;56.70
44517;DHT22;30223;17.182;-96.766;2022-12-17T16:12:53;21.10;56.80
44517;DHT22;30223;17.182;-96.766;2022-12-17T16:15:20;21.10;57.10
44517;DHT22;30223;17.182;-96.766;2022-12-17T16:17:46;21.10;57.20
44517;DHT22;30223;17.182;-96.766;2022-12-17T16:20:13;21.20;57.40
44517;DHT22;30223;17.182;-96.766;2022-12-17T16:22:40;21.20;57.70
44517;DHT22;30223;17.182;-96.766;2022-12-17T16:25:07;21.20;58.10
44517;DHT22;30223;17.182;-96.766;2022-12-17T16:27:33;21.20;58.40
44517;DHT22;30223;17.182;-96.766;2022-12-17T16:30:00;21.20;58.60
44517;DHT22;30223;17.182;-96.766;2022-12-17T16:32:28;21.30;59.10
44517;DHT22;30223;17.182;-96.766;2022-12-17T16:34:55;21.30;59.20
44517;DHT22;30223;17.182;-96.766;2022-12-17T16:37:21;21.30;59.00
44517;DHT22;30223;17.182;-96.766;2022-12-17T16:39:51;21.40;58.90
44517;DHT22;30223;17.182;-96.766;2022-12-17T16:42:17;21.30;58.90
44517;DHT22;30223;17.182;-96.766;2022-12-17T16:44:44;21.40;58.80
44517;DHT22;30223;17.182;-96.766;2022-12-17T16:47:10;21.40;58.80
44517;DHT22;30223;17.182;-96.766;2022-12-17T16:49:37;21.40;58.70
44517;DHT22;30223;17.182;-96.766;2022-12-17T16:52:04;21.40;58.70
44517;DHT22;30223;17.182;-96.766;2022-12-17T16:54:31;21.50;58.70
44517;DHT22;30223;17.182;-96.766;2022-12-17T16:56:59;21.50;58.60
44517;DHT22;30223;17.182;-96.766;2022-12-17T16:59:27;21.50;58.60
44517;DHT22;30223;17.182;-96.766;2022-12-17T17:01:54;21.50;58.50
44517;DHT22;30223;17.182;-96.766;2022-12-17T17:04:22;21.50;58.60
44517;DHT22;30223;17.182;-96.766;2022-12-17T17:06:52;21.50;58.50
44517;DHT22;30223;17.182;-96.766;2022-12-17T17:09:20;21.60;58.40
44517;DHT22;30223;17.182;-96.766;2022-12-17T17:11:47;21.70;58.10
44517;DHT22;30223;17.182;-96.766;2022-12-17T17:14:14;21.70;57.80
44517;DHT22;30223;17.182;-96.766;2022-12-17T17:16:40;21.70;57.70
44517;DHT22;30223;17.182;-96.766;2022-12-17T17:19:07;21.70;57.70
44517;DHT22;30223;17.182;-96.766;2022-12-17T17:21:39;21.80;57.50
44517;DHT22;30223;17.182;-96.766;2022-12-17T17:24:11;21.80;56.70
44517;DHT22;30223;17.182;-96.766;2022-12-17T17:26:38;21.80;56.50
44517;DHT22;30223;17.182;-96.766;2022-12-17T17:29:05;21.90;56.80
44517;DHT22;30223;17.182;-96.766;2022-12-17T17:31:33;21.90;56.50
44517;DHT22;30223;17.182;-96.766;2022-12-17T17:34:00;22.00;57.00
44517;DHT22;30223;17.182;-96.766;2022-12-17T17:36:28;22.00;56.80
44517;DHT22;30223;17.182;-96.766;2022-12-17T17:38:57;22.00;56.80
44517;DHT22;30223;17.182;-96.766;2022-12-17T17:41:26;22.10;56.80
44517;DHT22;30223;17.182;-96.766;2022-12-17T17:44:01;22.10;56.80
44517;DHT22;30223;17.182;-96.766;2022-12-17T17:46:29;22.10;56.60
44517;DHT22;30223;17.182;-96.766;2022-12-17T17:49:00;22.10;56.70
44517;DHT22;30223;17.182;-96.766;2022-12-17T17:51:32;22.20;56.90
44517;DHT22;30223;17.182;-96.766;2022-12-17T17:54:00;22.20;57.00
44517;DHT22;30223;17.182;-96.766;2022-12-17T17:56:31;22.30;56.90
44517;DHT22;30223;17.182;-96.766;2022-12-17T17:59:03;22.30;56.50
44517;DHT22;30223;17.182;-96.766;2022-12-17T18:01:33;22.40;56.30
44517;DHT22;30223;17.182;-96.766;2022-12-17T18:04:02;22.30;55.50
44517;DHT22;30223;17.182;-96.766;2022-12-17T18:06:29;22.40;56.00
44517;DHT22;30223;17.182;-96.766;2022-12-17T18:08:57;22.40;55.80
44517;DHT22;30223;17.182;-96.766;2022-12-17T18:11:26;22.50;56.00
44517;DHT22;30223;17.182;-96.766;2022-12-17T18:13:52;22.50;55.00
44517;DHT22;30223;17.182;-96.766;2022-12-17T18:19:01;22.60;54.00
44517;DHT22;30223;17.182;-96.766;2022-12-17T18:21:29;22.70;54.20
44517;DHT22;30223;17.182;-96.766;2022-12-17T18:23:57;22.70;54.00
44517;DHT22;30223;17.182;-96.766;2022-12-17T18:26:32;22.80;54.10
44517;DHT22;30223;17.182;-96.766;2022-12-17T18:29:00;22.80;54.40